sensor_id;sensor_type;location;lat;lon;timestamp;temperature;humidity
13472;DHT22;6808;49.444;11.034;2022-08-19T00:00:06;22.10;99.90
13472;DHT22;6808;49.444;11.034;2022-08-19T00:02:33;22.10;99.90
13472;DHT22;6808;49.444;11.034;2022-08-19T00:04:59;22.10;99.90
13472;DHT22;6808;49.444;11.034;2022-08-19T00:07:25;22.10;99.90
13472;DHT22;6808;49.444;11.034;2022-08-19T00:09:51;22.10;99.90
13472;DHT22;6808;49.444;11.034;2022-08-19T00:12:16;22.10;99.90
13472;DHT22;6808;49.444;11.034;2022-08-19T00:14:42;22.10;99.90
13472;DHT22;6808;49.444;11.034;2022-08-19T00:17:08;22.00;99.90
13472;DHT22;6808;49.444;11.034;2022-08-19T00:19:34;21.90;99.90
13472;DHT22;6808;49.444;11.034;2022-08-19T00:22:00;21.90;99.90
13472;DHT22;6808;49.444;11.034;2022-08-19T00:24:27;21.90;99.90
13472;DHT22;6808;49.444;11.034;2022-08-19T00:26:55;21.90;99.90
13472;DHT22;6808;49.444;11.034;2022-08-19T00:29:22;21.90;99.90
13472;DHT22;6808;49.444;11.034;2022-08-19T00:31:48;21.90;99.90
13472;DHT22;6808;49.444;11.034;2022-08-19T00:34:15;21.90;99.90
13472;DHT22;6808;49.444;11.034;2022-08-19T00:36:42;21.90;99.90
13472;DHT22;6808;49.444;11.034;2022-08-19T00:39:08;21.90;99.90
13472;DHT22;6808;49.444;11.034;2022-08-19T00:41:34;21.90;99.90
13472;DHT22;6808;49.444;11.034;2022-08-19T00:44:13;21.90;99.90
13472;DHT22;6808;49.444;11.034;2022-08-19T00:46:42;21.90;99.90
13472;DHT22;6808;49.444;11.034;2022-08-19T00:49:30;22.00;99.90
13472;DHT22;6808;49.444;11.034;2022-08-19T00:52:09;22.00;99.90
13472;DHT22;6808;49.444;11.034;2022-08-19T00:54:38;21.90;99.90
13472;DHT22;6808;49.444;11.034;2022-08-19T00:57:07;21.90;99.90
13472;DHT22;6808;49.444;11.034;2022-08-19T00:59:35;21.90;99.90
13472;DHT22;6808;49.444;11.034;2022-08-19T01:02:04;21.80;99.90
13472;DHT22;6808;49.444;11.034;2022-08-19T01:04:30;21.80;99.90
13472;DHT22;6808;49.444;11.034;2022-08-19T01:06:56;21.80;99.90
13472;DHT22;6808;49.444;11.034;2022-08-19T01:09:22;21.80;99.90
13472;DHT22;6808;49.444;11.034;2022-08-19T01:11:48;21.80;99.90
13472;DHT22;6808;49.444;11.034;2022-08-19T01:14:15;21.70;99.90
13472;DHT22;6808;49.444;11.034;2022-08-19T01:16:43;21.80;99.90
13472;DHT22;6808;49.444;11.034;2022-08-19T01:19:15;21.70;99.90
13472;DHT22;6808;49.444;11.034;2022-08-19T01:21:52;21.60;99.90
13472;DHT22;6808;49.444;11.034;2022-08-19T01:24:18;21.70;99.90
13472;DHT22;6808;49.444;11.034;2022-08-19T01:26:46;21.70;99.90
13472;DHT22;6808;49.444;11.034;2022-08-19T01:29:12;21.60;99.90
13472;DHT22;6808;49.444;11.034;2022-08-19T01:31:39;21.60;99.90
13472;DHT22;6808;49.444;11.034;2022-08-19T01:34:05;21.60;99.90
13472;DHT22;6808;49.444;11.034;2022-08-19T01:36:57;21.70;99.90
13472;DHT22;6808;49.444;11.034;2022-08-19T01:39:24;21.60;99.90
13472;DHT22;6808;49.444;11.034;2022-08-19T01:41:50;21.70;99.90
13472;DHT22;6808;49.444;11.034;2022-08-19T01:44:20;21.60;99.90
13472;DHT22;6808;49.444;11.034;2022-08-19T01:46:49;21.70;99.90
13472;DHT22;6808;49.444;11.034;2022-08-19T01:49:17;21.70;99.90
13472;DHT22;6808;49.444;11.034;2022-08-19T01:51:43;21.70;99.90
13472;DHT22;6808;49.444;11.034;2022-08-19T01:54:11;21.70;99.90
13472;DHT22;6808;49.444;11.034;2022-08-19T01:56:37;21.60;99.90
13472;DHT22;6808;49.444;11.034;2022-08-19T01:59:08;21.60;99.90
13472;DHT22;6808;49.444;11.034;2022-08-19T02:01:35;21.70;99.90
13472;DHT22;6808;49.444;11.034;2022-08-19T02:04:00;21.60;99.90
13472;DHT22;6808;49.444;11.034;2022-08-19T02:06:27;21.60;99.90
13472;DHT22;6808;49.444;11.034;2022-08-19T02:08:53;21.60;99.90
13472;DHT22;6808;49.444;11.034;2022-08-19T02:11:24;21.60;99.90
13472;DHT22;6808;49.444;11.034;2022-08-19T02:13:53;21.60;99.90
13472;DHT22;6808;49.444;11.034;2022-08-19T02:16:19;21.60;99.90
13472;DHT22;6808;49.444;11.034;2022-08-19T02:18:46;21.50;99.90
13472;DHT22;6808;49.444;11.034;2022-08-19T02:21:14;21.50;99.90
13472;DHT22;6808;49.444;11.034;2022-08-19T02:23:41;22.10;99.90
13472;DHT22;6808;49.444;11.034;2022-08-19T02:26:07;21.90;99.90
13472;DHT22;6808;49.444;11.034;2022-08-19T02:28:32;21.60;99.90
13472;DHT22;6808;49.444;11.034;2022-08-19T02:30:59;21.50;99.90
13472;DHT22;6808;49.444;11.034;2022-08-19T02:33:26;21.50;99.90
13472;DHT22;6808;49.444;11.034;2022-08-19T02:35:52;21.50;99.90
13472;DHT22;6808;49.444;11.034;2022-08-19T02:38:17;21.60;99.90
13472;DHT22;6808;49.444;11.034;2022-08-19T02:40:55;21.60;99.90
13472;DHT22;6808;49.444;11.034;2022-08-19T02:43:22;21.60;99.90
13472;DHT22;6808;49.444;11.034;2022-08-19T02:45:48;21.60;99.90
13472;DHT22;6808;49.444;11.034;2022-08-19T02:48:16;21.60;99.90
13472;DHT22;6808;49.444;11.034;2022-08-19T02:50:42;21.70;99.90
13472;DHT22;6808;49.444;11.034;2022-08-19T02:53:08;21.50;99.90
13472;DHT22;6808;49.444;11.034;2022-08-19T02:55:34;21.60;99.90
13472;DHT22;6808;49.444;11.034;2022-08-19T02:58:00;21.60;99.90
13472;DHT22;6808;49.444;11.034;2022-08-19T03:00:26;21.60;99.90
13472;DHT22;6808;49.444;11.034;2022-08-19T03:02:52;21.70;99.90
13472;DHT22;6808;49.444;11.034;2022-08-19T03:05:18;21.70;99.90
13472;DHT22;6808;49.444;11.034;2022-08-19T03:07:44;21.60;99.90
13472;DHT22;6808;49.444;11.034;2022-08-19T03:10:10;21.70;99.90
13472;DHT22;6808;49.444;11.034;2022-08-19T03:12:37;21.60;99.90
13472;DHT22;6808;49.444;11.034;2022-08-19T03:15:05;21.50;99.90
13472;DHT22;6808;49.444;11.034;2022-08-19T03:17:31;21.50;99.90
13472;DHT22;6808;49.444;11.034;2022-08-19T03:19:57;21.50;99.90
13472;DHT22;6808;49.444;11.034;2022-08-19T03:22:22;21.50;99.90
13472;DHT22;6808;49.444;11.034;2022-08-19T03:24:48;21.50;99.90
13472;DHT22;6808;49.444;11.034;2022-08-19T03:27:13;21.50;99.90
13472;DHT22;6808;49.444;11.034;2022-08-19T03:29:39;21.50;99.90
13472;DHT22;6808;49.444;11.034;2022-08-19T03:32:05;21.60;99.90
13472;DHT22;6808;49.444;11.034;2022-08-19T03:34:33;21.50;99.90
13472;DHT22;6808;49.444;11.034;2022-08-19T03:37:04;21.50;99.90
13472;DHT22;6808;49.444;11.034;2022-08-19T03:39:30;21.50;99.90
13472;DHT22;6808;49.444;11.034;2022-08-19T03:41:56;21.50;99.90
13472;DHT22;6808;49.444;11.034;2022-08-19T03:44:28;21.50;99.90
13472;DHT22;6808;49.444;11.034;2022-08-19T03:46:56;21.50;99.90
13472;DHT22;6808;49.444;11.034;2022-08-19T03:49:26;21.40;99.90
13472;DHT22;6808;49.444;11.034;2022-08-19T03:51:53;21.40;99.90
13472;DHT22;6808;49.444;11.034;2022-08-19T03:54:21;21.40;99.90
13472;DHT22;6808;49.444;11.034;2022-08-19T03:56:50;21.40;99.90
13472;DHT22;6808;49.444;11.034;2022-08-19T03:59:21;21.50;99.90
13472;DHT22;6808;49.444;11.034;2022-08-19T04:01:55;21.30;99.90
13472;DHT22;6808;49.444;11.034;2022-08-19T04:04:22;21.40;99.90
13472;DHT22;6808;49.444;11.034;2022-08-19T04:06:48;21.40;99.90
13472;DHT22;6808;49.444;11.034;2022-08-19T04:09:14;21.30;99.90
13472;DHT22;6808;49.444;11.034;2022-08-19T04:11:44;21.30;99.90
13472;DHT22;6808;49.444;11.034;2022-08-19T04:14:17;21.20;99.90
13472;DHT22;6808;49.444;11.034;2022-08-19T04:16:44;21.30;99.90
13472;DHT22;6808;49.444;11.034;2022-08-19T04:19:10;21.30;99.90
13472;DHT22;6808;49.444;11.034;2022-08-19T04:21:36;21.30;99.90
13472;DHT22;6808;49.444;11.034;2022-08-19T04:24:02;21.30;99.90
13472;DHT22;6808;49.444;11.034;2022-08-19T04:26:31;21.30;99.90
13472;DHT22;6808;49.444;11.034;2022-08-19T04:29:02;21.40;99.90
13472;DHT22;6808;49.444;11.034;2022-08-19T04:31:31;21.30;99.90
13472;DHT22;6808;49.444;11.034;2022-08-19T04:33:59;21.30;99.90
13472;DHT22;6808;49.444;11.034;2022-08-19T04:36:27;21.40;99.90
13472;DHT22;6808;49.444;11.034;2022-08-19T04:38:55;21.40;99.90
13472;DHT22;6808;49.444;11.034;2022-08-19T04:41:22;21.40;99.90
13472;DHT22;6808;49.444;11.034;2022-08-19T04:44:07;21.40;99.90
13472;DHT22;6808;49.444;11.034;2022-08-19T04:46:33;21.40;99.90
13472;DHT22;6808;49.444;11.034;2022-08-19T04:48:59;21.30;99.90
13472;DHT22;6808;49.444;11.034;2022-08-19T04:51:25;21.30;99.90
13472;DHT22;6808;49.444;11.034;2022-08-19T04:53:52;21.30;99.90
13472;DHT22;6808;49.444;11.034;2022-08-19T04:56:19;21.30;99.90
13472;DHT22;6808;49.444;11.034;2022-08-19T04:58:46;21.30;99.90
13472;DHT22;6808;49.444;11.034;2022-08-19T05:01:15;21.30;99.90
13472;DHT22;6808;49.444;11.034;2022-08-19T05:03:42;21.30;99.90
13472;DHT22;6808;49.444;11.034;2022-08-19T05:06:11;21.30;99.90
13472;DHT22;6808;49.444;11.034;2022-08-19T05:08:39;21.30;99.90
13472;DHT22;6808;49.444;11.034;2022-08-19T05:13:37;21.30;99.90
13472;DHT22;6808;49.444;11.034;2022-08-19T05:16:03;21.40;99.90
13472;DHT22;6808;49.444;11.034;2022-08-19T05:18:29;21.40;99.90
13472;DHT22;6808;49.444;11.034;2022-08-19T05:21:16;21.50;99.90
13472;DHT22;6808;49.444;11.034;2022-08-19T05:24:00;21.40;99.90
13472;DHT22;6808;49.444;11.034;2022-08-19T05:26:26;21.40;99.90
13472;DHT22;6808;49.444;11.034;2022-08-19T05:28:53;21.40;99.90
13472;DHT22;6808;49.444;11.034;2022-08-19T05:31:19;21.40;99.90
13472;DHT22;6808;49.444;11.034;2022-08-19T05:33:45;21.40;99.90
13472;DHT22;6808;49.444;11.034;2022-08-19T05:36:11;21.40;99.90
13472;DHT22;6808;49.444;11.034;2022-08-19T05:38:37;21.40;99.90
13472;DHT22;6808;49.444;11.034;2022-08-19T05:41:11;21.40;99.90
13472;DHT22;6808;49.444;11.034;2022-08-19T05:43:37;21.40;99.90
13472;DHT22;6808;49.444;11.034;2022-08-19T05:46:04;21.40;99.90
13472;DHT22;6808;49.444;11.034;2022-08-19T05:48:31;21.40;99.90
13472;DHT22;6808;49.444;11.034;2022-08-19T05:50:56;21.40;99.90
13472;DHT22;6808;49.444;11.034;2022-08-19T05:53:23;21.50;99.90
13472;DHT22;6808;49.444;11.034;2022-08-19T05:55:49;21.60;99.90
13472;DHT22;6808;49.444;11.034;2022-08-19T05:58:15;21.50;99.90
13472;DHT22;6808;49.444;11.034;2022-08-19T06:00:43;21.50;99.90
13472;DHT22;6808;49.444;11.034;2022-08-19T06:03:09;21.60;99.90
13472;DHT22;6808;49.444;11.034;2022-08-19T06:05:35;21.60;99.90
13472;DHT22;6808;49.444;11.034;2022-08-19T06:08:01;21.60;99.90
13472;DHT22;6808;49.444;11.034;2022-08-19T06:10:27;21.70;99.90
13472;DHT22;6808;49.444;11.034;2022-08-19T06:12:53;21.70;99.90
13472;DHT22;6808;49.444;11.034;2022-08-19T06:15:18;21.80;99.90
13472;DHT22;6808;49.444;11.034;2022-08-19T06:17:44;21.90;99.90
13472;DHT22;6808;49.444;11.034;2022-08-19T06:20:12;22.10;99.90
13472;DHT22;6808;49.444;11.034;2022-08-19T06:22:46;22.10;99.90
13472;DHT22;6808;49.444;11.034;2022-08-19T06:25:14;22.30;99.90
13472;DHT22;6808;49.444;11.034;2022-08-19T06:27:40;22.30;99.90
13472;DHT22;6808;49.444;11.034;2022-08-19T06:30:07;22.30;99.90
13472;DHT22;6808;49.444;11.034;2022-08-19T06:32:32;22.40;99.90
13472;DHT22;6808;49.444;11.034;2022-08-19T06:34:58;22.40;99.90
13472;DHT22;6808;49.444;11.034;2022-08-19T06:37:24;22.40;99.90
13472;DHT22;6808;49.444;11.034;2022-08-19T06:39:50;22.30;99.90
13472;DHT22;6808;49.444;11.034;2022-08-19T06:42:15;22.50;99.90
13472;DHT22;6808;49.444;11.034;2022-08-19T06:44:46;22.70;99.90
13472;DHT22;6808;49.444;11.034;2022-08-19T06:47:15;22.70;99.90
13472;DHT22;6808;49.444;11.034;2022-08-19T06:49:41;22.80;99.90
13472;DHT22;6808;49.444;11.034;2022-08-19T06:52:08;22.70;99.90
13472;DHT22;6808;49.444;11.034;2022-08-19T06:54:37;22.70;99.90
13472;DHT22;6808;49.444;11.034;2022-08-19T06:57:02;22.80;99.90
13472;DHT22;6808;49.444;11.034;2022-08-19T06:59:29;22.70;99.90
13472;DHT22;6808;49.444;11.034;2022-08-19T07:02:00;22.70;99.90
13472;DHT22;6808;49.444;11.034;2022-08-19T07:04:29;22.60;99.90
13472;DHT22;6808;49.444;11.034;2022-08-19T07:06:59;22.60;99.90
13472;DHT22;6808;49.444;11.034;2022-08-19T07:09:26;22.00;99.90
13472;DHT22;6808;49.444;11.034;2022-08-19T07:11:53;22.60;99.90
13472;DHT22;6808;49.444;11.034;2022-08-19T07:14:21;22.60;99.90
13472;DHT22;6808;49.444;11.034;2022-08-19T07:16:48;22.60;99.90
13472;DHT22;6808;49.444;11.034;2022-08-19T07:19:16;22.60;99.90
13472;DHT22;6808;49.444;11.034;2022-08-19T07:21:42;22.60;99.90
13472;DHT22;6808;49.444;11.034;2022-08-19T07:24:08;22.70;99.90
13472;DHT22;6808;49.444;11.034;2022-08-19T07:26:41;22.60;99.90
13472;DHT22;6808;49.444;11.034;2022-08-19T07:29:06;22.60;99.90
13472;DHT22;6808;49.444;11.034;2022-08-19T07:31:32;22.70;99.90
13472;DHT22;6808;49.444;11.034;2022-08-19T07:34:04;22.60;99.90
13472;DHT22;6808;49.444;11.034;2022-08-19T07:36:33;22.60;99.90
13472;DHT22;6808;49.444;11.034;2022-08-19T07:39:01;22.60;99.90
13472;DHT22;6808;49.444;11.034;2022-08-19T07:41:29;22.50;99.90
13472;DHT22;6808;49.444;11.034;2022-08-19T07:43:56;22.50;99.90
13472;DHT22;6808;49.444;11.034;2022-08-19T07:46:21;22.40;99.90
13472;DHT22;6808;49.444;11.034;2022-08-19T07:48:49;22.40;99.90
13472;DHT22;6808;49.444;11.034;2022-08-19T07:51:20;22.40;99.90
13472;DHT22;6808;49.444;11.034;2022-08-19T07:53:48;22.40;99.90
13472;DHT22;6808;49.444;11.034;2022-08-19T07:56:16;22.40;99.90
13472;DHT22;6808;49.444;11.034;2022-08-19T07:58:45;22.30;99.90
13472;DHT22;6808;49.444;11.034;2022-08-19T08:01:13;22.40;99.90
13472;DHT22;6808;49.444;11.034;2022-08-19T08:03:39;22.30;99.90
13472;DHT22;6808;49.444;11.034;2022-08-19T08:06:24;22.30;99.90
13472;DHT22;6808;49.444;11.034;2022-08-19T08:09:09;22.20;99.90
13472;DHT22;6808;49.444;11.034;2022-08-19T08:14:22;22.20;99.90
13472;DHT22;6808;49.444;11.034;2022-08-19T08:16:49;22.30;99.90
13472;DHT22;6808;49.444;11.034;2022-08-19T08:19:17;22.30;99.90
13472;DHT22;6808;49.444;11.034;2022-08-19T08:21:44;22.30;99.90
13472;DHT22;6808;49.444;11.034;2022-08-19T08:24:11;22.50;99.90
13472;DHT22;6808;49.444;11.034;2022-08-19T08:26:38;22.50;99.90
13472;DHT22;6808;49.444;11.034;2022-08-19T08:29:03;22.60;99.90
13472;DHT22;6808;49.444;11.034;2022-08-19T08:31:29;22.50;99.90
13472;DHT22;6808;49.444;11.034;2022-08-19T08:33:55;22.50;99.90
13472;DHT22;6808;49.444;11.034;2022-08-19T08:36:21;22.60;99.90
13472;DHT22;6808;49.444;11.034;2022-08-19T08:38:46;22.50;99.90
13472;DHT22;6808;49.444;11.034;2022-08-19T08:43:49;22.50;99.90
13472;DHT22;6808;49.444;11.034;2022-08-19T08:46:27;22.50;99.90
13472;DHT22;6808;49.444;11.034;2022-08-19T08:52:19;22.50;99.90
13472;DHT22;6808;49.444;11.034;2022-08-19T08:54:48;22.50;99.90
13472;DHT22;6808;49.444;11.034;2022-08-19T08:57:20;22.40;99.90
13472;DHT22;6808;49.444;11.034;2022-08-19T08:59:48;22.40;99.90
13472;DHT22;6808;49.444;11.034;2022-08-19T09:02:18;22.40;99.90
13472;DHT22;6808;49.444;11.034;2022-08-19T09:04:43;22.40;99.90
13472;DHT22;6808;49.444;11.034;2022-08-19T09:09:43;22.30;99.90
13472;DHT22;6808;49.444;11.034;2022-08-19T09:12:31;22.30;99.90
13472;DHT22;6808;49.444;11.034;2022-08-19T09:15:13;22.30;99.90
13472;DHT22;6808;49.444;11.034;2022-08-19T09:17:39;22.40;99.90
13472;DHT22;6808;49.444;11.034;2022-08-19T09:20:21;22.40;99.90
13472;DHT22;6808;49.444;11.034;2022-08-19T09:22:47;22.30;99.90
13472;DHT22;6808;49.444;11.034;2022-08-19T09:25:18;22.20;99.90
13472;DHT22;6808;49.444;11.034;2022-08-19T09:27:44;22.20;99.90
13472;DHT22;6808;49.444;11.034;2022-08-19T09:30:23;22.20;99.90
13472;DHT22;6808;49.444;11.034;2022-08-19T09:32:49;22.10;99.90
13472;DHT22;6808;49.444;11.034;2022-08-19T09:35:18;22.20;99.90
13472;DHT22;6808;49.444;11.034;2022-08-19T09:37:43;22.20;99.90
13472;DHT22;6808;49.444;11.034;2022-08-19T09:40:10;22.20;99.90
13472;DHT22;6808;49.444;11.034;2022-08-19T09:42:36;22.20;99.90
13472;DHT22;6808;49.444;11.034;2022-08-19T09:45:03;22.30;99.90
13472;DHT22;6808;49.444;11.034;2022-08-19T09:47:29;22.20;99.90
13472;DHT22;6808;49.444;11.034;2022-08-19T09:49:54;22.20;99.90
13472;DHT22;6808;49.444;11.034;2022-08-19T09:52:20;22.20;99.90
13472;DHT22;6808;49.444;11.034;2022-08-19T09:54:46;22.10;99.90
13472;DHT22;6808;49.444;11.034;2022-08-19T09:57:11;22.20;99.90
13472;DHT22;6808;49.444;11.034;2022-08-19T09:59:38;22.10;99.90
13472;DHT22;6808;49.444;11.034;2022-08-19T10:02:04;22.20;99.90
13472;DHT22;6808;49.444;11.034;2022-08-19T10:04:30;22.20;99.90
13472;DHT22;6808;49.444;11.034;2022-08-19T10:07:21;22.20;99.90
13472;DHT22;6808;49.444;11.034;2022-08-19T10:09:47;22.10;99.90
13472;DHT22;6808;49.444;11.034;2022-08-19T10:12:12;22.00;99.90
13472;DHT22;6808;49.444;11.034;2022-08-19T10:14:40;22.10;99.90
13472;DHT22;6808;49.444;11.034;2022-08-19T10:17:06;22.10;99.90
13472;DHT22;6808;49.444;11.034;2022-08-19T10:19:32;22.20;99.90
13472;DHT22;6808;49.444;11.034;2022-08-19T10:22:03;22.10;99.90
13472;DHT22;6808;49.444;11.034;2022-08-19T10:24:29;22.20;99.90
13472;DHT22;6808;49.444;11.034;2022-08-19T10:26:56;22.20;99.90
13472;DHT22;6808;49.444;11.034;2022-08-19T10:29:22;22.20;99.90
13472;DHT22;6808;49.444;11.034;2022-08-19T10:31:48;22.20;99.90
13472;DHT22;6808;49.444;11.034;2022-08-19T10:34:13;22.10;99.90
13472;DHT22;6808;49.444;11.034;2022-08-19T10:36:39;22.10;99.90
13472;DHT22;6808;49.444;11.034;2022-08-19T10:39:08;22.10;99.90
13472;DHT22;6808;49.444;11.034;2022-08-19T10:41:37;22.10;99.90
13472;DHT22;6808;49.444;11.034;2022-08-19T10:44:05;22.10;99.90
13472;DHT22;6808;49.444;11.034;2022-08-19T10:46:32;22.10;99.90
13472;DHT22;6808;49.444;11.034;2022-08-19T10:48:59;22.10;99.90
13472;DHT22;6808;49.444;11.034;2022-08-19T10:51:26;22.10;99.90
13472;DHT22;6808;49.444;11.034;2022-08-19T10:54:10;22.10;99.90
13472;DHT22;6808;49.444;11.034;2022-08-19T10:56:36;22.10;99.90
13472;DHT22;6808;49.444;11.034;2022-08-19T10:59:29;22.10;99.90
13472;DHT22;6808;49.444;11.034;2022-08-19T11:01:59;22.10;99.90
13472;DHT22;6808;49.444;11.034;2022-08-19T11:04:25;22.10;99.90
13472;DHT22;6808;49.444;11.034;2022-08-19T11:06:51;22.10;99.90
13472;DHT22;6808;49.444;11.034;2022-08-19T11:09:20;22.10;99.90
13472;DHT22;6808;49.444;11.034;2022-08-19T11:11:49;22.10;99.90
13472;DHT22;6808;49.444;11.034;2022-08-19T11:14:16;22.10;99.90
13472;DHT22;6808;49.444;11.034;2022-08-19T11:16:45;22.20;99.90
13472;DHT22;6808;49.444;11.034;2022-08-19T11:19:12;22.10;99.90
13472;DHT22;6808;49.444;11.034;2022-08-19T11:21:43;22.10;99.90
13472;DHT22;6808;49.444;11.034;2022-08-19T11:24:12;22.10;99.90
13472;DHT22;6808;49.444;11.034;2022-08-19T11:26:39;22.10;99.90
13472;DHT22;6808;49.444;11.034;2022-08-19T11:29:07;22.10;99.90
13472;DHT22;6808;49.444;11.034;2022-08-19T11:31:37;22.10;99.90
13472;DHT22;6808;49.444;11.034;2022-08-19T11:34:07;22.10;99.90
13472;DHT22;6808;49.444;11.034;2022-08-19T11:36:34;22.10;99.90
13472;DHT22;6808;49.444;11.034;2022-08-19T11:39:04;22.10;99.90
13472;DHT22;6808;49.444;11.034;2022-08-19T11:41:30;22.10;99.90
13472;DHT22;6808;49.444;11.034;2022-08-19T11:43:55;22.20;99.90
13472;DHT22;6808;49.444;11.034;2022-08-19T11:46:23;22.10;99.90
13472;DHT22;6808;49.444;11.034;2022-08-19T11:48:49;22.20;99.90
13472;DHT22;6808;49.444;11.034;2022-08-19T11:51:21;22.20;99.90
13472;DHT22;6808;49.444;11.034;2022-08-19T11:53:48;22.20;99.90
13472;DHT22;6808;49.444;11.034;2022-08-19T11:56:15;22.20;99.90
13472;DHT22;6808;49.444;11.034;2022-08-19T11:58:41;22.20;99.90
13472;DHT22;6808;49.444;11.034;2022-08-19T12:01:11;22.10;99.90
13472;DHT22;6808;49.444;11.034;2022-08-19T12:03:38;22.10;99.90
13472;DHT22;6808;49.444;11.034;2022-08-19T12:06:05;22.00;99.90
13472;DHT22;6808;49.444;11.034;2022-08-19T12:08:31;22.00;99.90
13472;DHT22;6808;49.444;11.034;2022-08-19T12:10:57;22.00;99.90
13472;DHT22;6808;49.444;11.034;2022-08-19T12:13:23;22.00;99.90
13472;DHT22;6808;49.444;11.034;2022-08-19T12:15:49;22.00;99.90
13472;DHT22;6808;49.444;11.034;2022-08-19T12:18:15;21.90;99.90
13472;DHT22;6808;49.444;11.034;2022-08-19T12:20:42;21.90;99.90
13472;DHT22;6808;49.444;11.034;2022-08-19T12:23:09;21.90;99.90
13472;DHT22;6808;49.444;11.034;2022-08-19T12:25:35;22.00;99.90
13472;DHT22;6808;49.444;11.034;2022-08-19T12:28:02;21.90;99.90
13472;DHT22;6808;49.444;11.034;2022-08-19T12:30:28;21.80;99.90
13472;DHT22;6808;49.444;11.034;2022-08-19T12:32:54;21.80;99.90
13472;DHT22;6808;49.444;11.034;2022-08-19T12:35:20;21.80;99.90
13472;DHT22;6808;49.444;11.034;2022-08-19T12:37:47;21.90;99.90
13472;DHT22;6808;49.444;11.034;2022-08-19T12:40:13;21.70;99.90
13472;DHT22;6808;49.444;11.034;2022-08-19T12:42:39;21.70;99.90
13472;DHT22;6808;49.444;11.034;2022-08-19T12:45:11;21.60;99.90
13472;DHT22;6808;49.444;11.034;2022-08-19T12:47:37;21.70;99.90
13472;DHT22;6808;49.444;11.034;2022-08-19T12:50:03;21.60;99.90
13472;DHT22;6808;49.444;11.034;2022-08-19T12:52:35;21.60;99.90
13472;DHT22;6808;49.444;11.034;2022-08-19T12:55:06;21.60;99.90
13472;DHT22;6808;49.444;11.034;2022-08-19T12:57:32;21.50;99.90
13472;DHT22;6808;49.444;11.034;2022-08-19T13:00:03;21.50;99.90
13472;DHT22;6808;49.444;11.034;2022-08-19T13:02:31;21.60;99.90
13472;DHT22;6808;49.444;11.034;2022-08-19T13:04:57;21.60;99.90
13472;DHT22;6808;49.444;11.034;2022-08-19T13:07:23;21.50;99.90
13472;DHT22;6808;49.444;11.034;2022-08-19T13:09:51;21.50;99.90
13472;DHT22;6808;49.444;11.034;2022-08-19T13:12:17;21.50;99.90
13472;DHT22;6808;49.444;11.034;2022-08-19T13:14:45;21.50;99.90
13472;DHT22;6808;49.444;11.034;2022-08-19T13:17:16;21.50;99.90
13472;DHT22;6808;49.444;11.034;2022-08-19T13:19:42;21.60;99.90
13472;DHT22;6808;49.444;11.034;2022-08-19T13:22:07;21.50;99.90
13472;DHT22;6808;49.444;11.034;2022-08-19T13:24:33;21.50;99.90
13472;DHT22;6808;49.444;11.034;2022-08-19T13:27:00;21.50;99.90
13472;DHT22;6808;49.444;11.034;2022-08-19T13:29:25;21.60;99.90
13472;DHT22;6808;49.444;11.034;2022-08-19T13:32:09;21.60;99.90
13472;DHT22;6808;49.444;11.034;2022-08-19T13:34:53;21.60;99.90
13472;DHT22;6808;49.444;11.034;2022-08-19T13:37:19;21.70;99.90
13472;DHT22;6808;49.444;11.034;2022-08-19T13:40:05;21.70;99.90
13472;DHT22;6808;49.444;11.034;2022-08-19T13:42:31;21.60;99.90
13472;DHT22;6808;49.444;11.034;2022-08-19T13:44:58;21.60;99.90
13472;DHT22;6808;49.444;11.034;2022-08-19T13:47:24;21.60;99.90
13472;DHT22;6808;49.444;11.034;2022-08-19T13:49:49;21.60;99.90
13472;DHT22;6808;49.444;11.034;2022-08-19T13:52:15;21.60;99.90
13472;DHT22;6808;49.444;11.034;2022-08-19T13:54:41;21.60;99.90
13472;DHT22;6808;49.444;11.034;2022-08-19T13:57:06;21.60;99.90
13472;DHT22;6808;49.444;11.034;2022-08-19T13:59:32;21.50;99.90
13472;DHT22;6808;49.444;11.034;2022-08-19T14:01:59;21.50;99.90
13472;DHT22;6808;49.444;11.034;2022-08-19T14:04:25;21.50;99.90
13472;DHT22;6808;49.444;11.034;2022-08-19T14:06:51;21.50;99.90
13472;DHT22;6808;49.444;11.034;2022-08-19T14:09:16;21.50;99.90
13472;DHT22;6808;49.444;11.034;2022-08-19T14:11:42;21.50;99.90
13472;DHT22;6808;49.444;11.034;2022-08-19T14:14:07;21.50;99.90
13472;DHT22;6808;49.444;11.034;2022-08-19T14:16:33;21.50;99.90
13472;DHT22;6808;49.444;11.034;2022-08-19T14:18:58;21.50;99.90
13472;DHT22;6808;49.444;11.034;2022-08-19T14:21:25;21.50;99.90
13472;DHT22;6808;49.444;11.034;2022-08-19T14:23:51;21.50;99.90
13472;DHT22;6808;49.444;11.034;2022-08-19T14:26:18;21.50;99.90
13472;DHT22;6808;49.444;11.034;2022-08-19T14:28:45;21.40;99.90
13472;DHT22;6808;49.444;11.034;2022-08-19T14:31:12;21.30;99.90
13472;DHT22;6808;49.444;11.034;2022-08-19T14:33:38;21.20;99.90
13472;DHT22;6808;49.444;11.034;2022-08-19T14:36:05;21.20;99.90
13472;DHT22;6808;49.444;11.034;2022-08-19T14:38:31;21.20;99.90
13472;DHT22;6808;49.444;11.034;2022-08-19T14:41:18;21.10;99.90
13472;DHT22;6808;49.444;11.034;2022-08-19T14:43:49;21.10;99.90
13472;DHT22;6808;49.444;11.034;2022-08-19T14:46:18;21.10;99.90
13472;DHT22;6808;49.444;11.034;2022-08-19T14:48:46;21.00;99.90
13472;DHT22;6808;49.444;11.034;2022-08-19T14:51:11;21.00;99.90
13472;DHT22;6808;49.444;11.034;2022-08-19T14:53:37;21.00;99.90
13472;DHT22;6808;49.444;11.034;2022-08-19T14:56:11;21.00;99.90
13472;DHT22;6808;49.444;11.034;2022-08-19T14:58:38;21.00;99.90
13472;DHT22;6808;49.444;11.034;2022-08-19T15:01:03;21.00;99.90
13472;DHT22;6808;49.444;11.034;2022-08-19T15:03:30;21.00;99.90
13472;DHT22;6808;49.444;11.034;2022-08-19T15:05:57;21.10;99.90
13472;DHT22;6808;49.444;11.034;2022-08-19T15:08:24;21.00;99.90
13472;DHT22;6808;49.444;11.034;2022-08-19T15:10:51;21.00;99.90
13472;DHT22;6808;49.444;11.034;2022-08-19T15:13:17;21.10;99.90
13472;DHT22;6808;49.444;11.034;2022-08-19T15:15:43;21.00;99.90
13472;DHT22;6808;49.444;11.034;2022-08-19T15:18:09;21.00;99.90
13472;DHT22;6808;49.444;11.034;2022-08-19T15:20:36;21.00;99.90
13472;DHT22;6808;49.444;11.034;2022-08-19T15:23:03;20.90;99.90
13472;DHT22;6808;49.444;11.034;2022-08-19T15:25:28;21.10;99.90
13472;DHT22;6808;49.444;11.034;2022-08-19T15:27:54;20.90;99.90
13472;DHT22;6808;49.444;11.034;2022-08-19T15:30:25;20.70;99.90
13472;DHT22;6808;49.444;11.034;2022-08-19T15:32:51;20.60;99.90
13472;DHT22;6808;49.444;11.034;2022-08-19T15:35:18;20.60;99.90
13472;DHT22;6808;49.444;11.034;2022-08-19T15:37:44;20.60;99.90
13472;DHT22;6808;49.444;11.034;2022-08-19T15:40:11;20.50;99.90
13472;DHT22;6808;49.444;11.034;2022-08-19T15:42:37;20.50;99.90
13472;DHT22;6808;49.444;11.034;2022-08-19T15:45:05;20.50;99.90
13472;DHT22;6808;49.444;11.034;2022-08-19T15:47:31;20.40;99.90